createdAt,value
2023-11-27T00:26:46.749Z,20.25
2023-11-27T00:55:28.279Z,20.22
2023-11-27T01:24:14.350Z,20.19
2023-11-27T01:52:31.839Z,20.15
2023-11-27T02:21:16.556Z,20.1
2023-11-27T02:49:54.925Z,20.07
2023-11-27T03:18:45.549Z,20.04
2023-11-27T03:47:27.266Z,20
2023-11-27T04:16:12.612Z,19.99
2023-11-27T04:44:49.839Z,19.94
2023-11-27T05:13:33.776Z,19.92
2023-11-27T05:42:17.402Z,20.21
2023-11-27T06:10:58.731Z,20.97
2023-11-27T06:39:39.308Z,21.22
2023-11-27T07:08:18.734Z,21.24
2023-11-27T07:36:58.061Z,20.91
2023-11-27T08:05:36.246Z,20.74
2023-11-27T08:34:13.515Z,20.95
2023-11-27T09:02:53.091Z,21.03
2023-11-27T09:31:30.681Z,21.14
2023-11-27T10:00:02.558Z,21.3
2023-11-27T10:28:48.271Z,21.56
2023-11-27T10:57:26.005Z,21.77
2023-11-27T11:26:04.923Z,21.7
2023-11-27T13:20:54.216Z,22.15
2023-11-27T13:49:42.972Z,22.17
2023-11-27T14:18:12.261Z,21.79
2023-11-27T14:46:45.612Z,21.61
2023-11-27T15:15:19.945Z,21.36
2023-11-27T15:44:06.839Z,21.2
2023-11-27T16:12:48.150Z,21.06
2023-11-27T16:41:29.590Z,20.93
2023-11-27T17:10:06.886Z,20.83
2023-11-27T17:38:46.109Z,20.72
2023-11-27T18:07:23.810Z,20.86
2023-11-27T18:36:12.212Z,20.76
2023-11-27T19:04:57.640Z,20.63
2023-11-27T19:33:37.841Z,20.54
2023-11-27T20:02:16.450Z,20.46
2023-11-27T20:30:52.029Z,20.38
2023-11-27T20:59:33.571Z,20.32
2023-11-27T21:28:19.558Z,20.26
2023-11-27T21:57:04.297Z,20.21
2023-11-27T22:25:55.365Z,20.16
2023-11-27T22:54:31.052Z,20.12
2023-11-27T23:23:19.293Z,20.08
2023-11-27T23:52:06.912Z,20.05
